Terminal Aerodrome Forecast
Issued by NWS Pueblo, CO

Home | Current Version | Previous Version | Text Only | Print | Product List | Glossary On
Versions: 1 2 3 4 5 6 7 8 9 10 11 12 13 14 15 16 17 18 19
000
FTUS45 KPUB 192017 AAB
TAFPUB
TAF AMD
KPUB 192017Z 1920/2018 12015KT P6SM VCTS SCT100CB BKN150
      TEMPO 1921/1923 VRB20G38KT 6SM -TSRA BKN100CB
     FM200100 30008KT P6SM VCSH SCT100 BKN150
     FM200400 30006KT P6SM SCT150
     FM201100 35010KT P6SM SKC
     FM201700 05012G25KT P6SM SKC=

USA.gov is the U.S. government's official web portal to all federal, state and local government web resources and services.